SDL - Scottsdale

Pirep is a free, collaborative database of all public and private airports located within the United States. All pilots are welcome to contribute, edit, and improve any airport they have local knowledge about, no registration required.
Uploaded photos will be licensed under a CC BY-SA 4.0 license. Please only upload photos you have the rights to use.
Tags
Public
Food
Lodging
METAR / TAF
Edit Tags
Camping
Car Rental
Bicycles
Swimming
Golfing
Fishing
Hot Springs
Museum
Flying Clubs
Airpark
Upcoming Events
No upcoming events. Is anything happening here soon?
*
*
*

Where exactly on/near the airport is this event taking place?

Is there a webpage with more information for this event?

Who should be contacted for more information?

What is this event all about?

Repeat every
Description
Last updated: 2023-05-09 22:24:57 MST
Transient Parking
Fuel Location
Landing & Tie-down Fees
Crew Car Availability
Flying Clubs
WiFi Access
Airport Statistics
Location: Scottsdale, AZ
Elevation: 1,510ft
Sectional: Phoenix
Activation date: Mar 1943
Fuel: 100LL, A1+ (prices)
Runway 03/21: 8,249ft
Access: Open to the public
Current Weather — VFR
  • Weather data is strictly informational and not for flight planning purposes.
  • METAR
    2024-05-24 16:53:00 MST
    Ceiling Wind Temperature Dewpoint Weather Visbility
    Sky clear 210° @ 6kt 93°F 30°F N/A 10SM
    Raw: KSDL 242353Z 21006KT 10SM CLR 34/M01 A2972 RMK AO2 SLP039 T03391006 10350 20294 56024
  • TAF
    2024-05-24 17:00:00 MST – 2024-05-24 20:00:00 MST
    Ceiling Wind Weather Visbility
    Sky clear 250° @ 12kt N/A 6SM
    Clouds: Few @ 25,000ft
    Raw: KSDL 242330Z 2500/2524 25012KT P6SM FEW250 FM250300 24008KT P6SM SKC FM251000 15005KT P6SM SKC FM251800 23009KT P6SM SKC FM251900 24009G15KT P6SM SKC
  • TAF
    2024-05-24 20:00:00 MST – 2024-05-25 03:00:00 MST
    Ceiling Wind Weather Visbility
    Sky clear 240° @ 8kt N/A 6SM
    Clouds: @ ft
    Raw: KSDL 242330Z 2500/2524 25012KT P6SM FEW250 FM250300 24008KT P6SM SKC FM251000 15005KT P6SM SKC FM251800 23009KT P6SM SKC FM251900 24009G15KT P6SM SKC
  • TAF
    2024-05-25 03:00:00 MST – 2024-05-25 11:00:00 MST
    Ceiling Wind Weather Visbility
    Sky clear 150° @ 5kt N/A 6SM
    Clouds: @ ft
    Raw: KSDL 242330Z 2500/2524 25012KT P6SM FEW250 FM250300 24008KT P6SM SKC FM251000 15005KT P6SM SKC FM251800 23009KT P6SM SKC FM251900 24009G15KT P6SM SKC
  • TAF
    2024-05-25 11:00:00 MST – 2024-05-25 12:00:00 MST
    Ceiling Wind Weather Visbility
    Sky clear 230° @ 9kt N/A 6SM
    Clouds: @ ft
    Raw: KSDL 242330Z 2500/2524 25012KT P6SM FEW250 FM250300 24008KT P6SM SKC FM251000 15005KT P6SM SKC FM251800 23009KT P6SM SKC FM251900 24009G15KT P6SM SKC
  • TAF
    2024-05-25 12:00:00 MST – 2024-05-25 17:00:00 MST
    Ceiling Wind Weather Visbility
    Sky clear 240° @ 9kt, gusts 15kt N/A 6SM
    Clouds: @ ft
    Raw: KSDL 242330Z 2500/2524 25012KT P6SM FEW250 FM250300 24008KT P6SM SKC FM251000 15005KT P6SM SKC FM251800 23009KT P6SM SKC FM251900 24009G15KT P6SM SKC
Click/tap to add an annotation marker to the map
Airport Webcams
No webcams added yet.
Direct links to live image URLs will be displayed inline on this page. URLs to separate webpages will be linked to.
URL:
Direct links to live image URLs will be displayed inline on this page. URLs to separate webpages will be linked to.
URL:
Remarks
  • Wildlife invof rwy.
  • Tgl na 2130-0600.
  • Maint runup na 2200-0700.
  • Mil arr 24 hr ppr - 480-312-8478.
  • Midfield dep na.
Comments
Leave a comment What was your experience like at this airport?